sensor_id;sensor_type;location;lat;lon;timestamp;temperature;humidity
21403;DHT22;10862;51.886;17.078;2022-12-07T00:01:14;2.30;99.90
21403;DHT22;10862;51.886;17.078;2022-12-07T00:03:42;2.30;99.90
21403;DHT22;10862;51.886;17.078;2022-12-07T00:06:10;2.30;99.90
21403;DHT22;10862;51.886;17.078;2022-12-07T00:08:38;2.30;99.90
21403;DHT22;10862;51.886;17.078;2022-12-07T00:11:09;2.20;99.90
21403;DHT22;10862;51.886;17.078;2022-12-07T00:13:36;2.30;99.90
21403;DHT22;10862;51.886;17.078;2022-12-07T00:16:18;2.30;99.90
21403;DHT22;10862;51.886;17.078;2022-12-07T00:18:45;2.30;99.90
21403;DHT22;10862;51.886;17.078;2022-12-07T00:21:19;2.30;99.90
21403;DHT22;10862;51.886;17.078;2022-12-07T00:23:46;2.30;99.90
21403;DHT22;10862;51.886;17.078;2022-12-07T00:26:16;2.30;99.90
21403;DHT22;10862;51.886;17.078;2022-12-07T00:28:46;2.30;99.90
21403;DHT22;10862;51.886;17.078;2022-12-07T00:31:13;2.30;99.90
21403;DHT22;10862;51.886;17.078;2022-12-07T00:33:39;2.30;99.90
21403;DHT22;10862;51.886;17.078;2022-12-07T00:36:08;2.20;99.90
21403;DHT22;10862;51.886;17.078;2022-12-07T00:38:35;2.30;99.90
21403;DHT22;10862;51.886;17.078;2022-12-07T00:41:13;2.30;99.90
21403;DHT22;10862;51.886;17.078;2022-12-07T00:43:40;2.30;99.90
21403;DHT22;10862;51.886;17.078;2022-12-07T00:46:05;2.40;99.90
21403;DHT22;10862;51.886;17.078;2022-12-07T00:48:32;2.40;99.90
21403;DHT22;10862;51.886;17.078;2022-12-07T00:50:57;2.30;99.90
21403;DHT22;10862;51.886;17.078;2022-12-07T00:53:23;2.30;99.90
21403;DHT22;10862;51.886;17.078;2022-12-07T00:55:49;2.30;99.90
21403;DHT22;10862;51.886;17.078;2022-12-07T00:58:15;2.50;99.90
21403;DHT22;10862;51.886;17.078;2022-12-07T01:00:42;2.40;99.90
21403;DHT22;10862;51.886;17.078;2022-12-07T01:03:10;2.30;99.90
21403;DHT22;10862;51.886;17.078;2022-12-07T01:05:36;2.40;99.90
21403;DHT22;10862;51.886;17.078;2022-12-07T01:08:02;2.30;99.90
21403;DHT22;10862;51.886;17.078;2022-12-07T01:10:28;2.30;99.90
21403;DHT22;10862;51.886;17.078;2022-12-07T01:12:56;2.40;99.90
21403;DHT22;10862;51.886;17.078;2022-12-07T01:15:22;2.40;99.90
21403;DHT22;10862;51.886;17.078;2022-12-07T01:17:48;2.30;99.90
21403;DHT22;10862;51.886;17.078;2022-12-07T01:20:14;2.40;99.90
21403;DHT22;10862;51.886;17.078;2022-12-07T01:22:41;2.30;99.90
21403;DHT22;10862;51.886;17.078;2022-12-07T01:25:09;2.30;99.90
21403;DHT22;10862;51.886;17.078;2022-12-07T01:27:35;2.20;99.90
21403;DHT22;10862;51.886;17.078;2022-12-07T01:30:01;2.40;99.90
21403;DHT22;10862;51.886;17.078;2022-12-07T01:32:28;2.30;99.90
21403;DHT22;10862;51.886;17.078;2022-12-07T01:34:54;2.30;99.90
21403;DHT22;10862;51.886;17.078;2022-12-07T01:37:20;2.30;99.90
21403;DHT22;10862;51.886;17.078;2022-12-07T01:39:49;2.30;99.90
21403;DHT22;10862;51.886;17.078;2022-12-07T01:42:14;2.30;99.90
21403;DHT22;10862;51.886;17.078;2022-12-07T01:47:53;2.40;99.90
21403;DHT22;10862;51.886;17.078;2022-12-07T01:50:20;2.30;99.90
21403;DHT22;10862;51.886;17.078;2022-12-07T01:52:49;2.40;99.90
21403;DHT22;10862;51.886;17.078;2022-12-07T01:55:17;2.30;99.90
21403;DHT22;10862;51.886;17.078;2022-12-07T01:57:50;2.30;99.90
21403;DHT22;10862;51.886;17.078;2022-12-07T02:00:17;2.40;99.90
21403;DHT22;10862;51.886;17.078;2022-12-07T02:02:53;2.40;99.90
21403;DHT22;10862;51.886;17.078;2022-12-07T02:05:19;2.30;99.90
21403;DHT22;10862;51.886;17.078;2022-12-07T02:07:47;2.40;99.90
21403;DHT22;10862;51.886;17.078;2022-12-07T02:10:27;2.40;99.90
21403;DHT22;10862;51.886;17.078;2022-12-07T02:15:50;2.40;99.90
21403;DHT22;10862;51.886;17.078;2022-12-07T02:18:25;2.40;99.90
21403;DHT22;10862;51.886;17.078;2022-12-07T02:28:46;2.40;99.90
21403;DHT22;10862;51.886;17.078;2022-12-07T02:31:17;2.50;99.90
21403;DHT22;10862;51.886;17.078;2022-12-07T02:33:49;2.40;99.90
21403;DHT22;10862;51.886;17.078;2022-12-07T02:36:22;2.40;99.90
21403;DHT22;10862;51.886;17.078;2022-12-07T02:39:05;2.50;99.90
21403;DHT22;10862;51.886;17.078;2022-12-07T02:41:47;2.40;99.90
21403;DHT22;10862;51.886;17.078;2022-12-07T02:44:20;2.40;99.90
21403;DHT22;10862;51.886;17.078;2022-12-07T02:46:58;2.40;99.90
21403;DHT22;10862;51.886;17.078;2022-12-07T02:49:26;2.40;99.90
21403;DHT22;10862;51.886;17.078;2022-12-07T02:51:52;2.40;99.90
21403;DHT22;10862;51.886;17.078;2022-12-07T02:54:19;2.40;99.90
21403;DHT22;10862;51.886;17.078;2022-12-07T02:56:48;2.30;99.90
21403;DHT22;10862;51.886;17.078;2022-12-07T03:13:04;2.40;99.90
21403;DHT22;10862;51.886;17.078;2022-12-07T03:15:33;2.40;99.90
21403;DHT22;10862;51.886;17.078;2022-12-07T03:18:02;2.40;99.90
21403;DHT22;10862;51.886;17.078;2022-12-07T03:20:29;2.40;99.90
21403;DHT22;10862;51.886;17.078;2022-12-07T03:22:57;2.40;99.90
21403;DHT22;10862;51.886;17.078;2022-12-07T03:25:25;2.40;99.90
21403;DHT22;10862;51.886;17.078;2022-12-07T03:30:20;2.40;99.90
21403;DHT22;10862;51.886;17.078;2022-12-07T03:35:22;2.40;99.90
21403;DHT22;10862;51.886;17.078;2022-12-07T03:40:32;2.40;99.90
21403;DHT22;10862;51.886;17.078;2022-12-07T03:43:00;2.40;99.90
21403;DHT22;10862;51.886;17.078;2022-12-07T03:45:42;2.40;99.90
21403;DHT22;10862;51.886;17.078;2022-12-07T03:48:46;2.40;99.90
21403;DHT22;10862;51.886;17.078;2022-12-07T03:56:36;2.20;99.90
21403;DHT22;10862;51.886;17.078;2022-12-07T03:59:03;2.30;99.90
21403;DHT22;10862;51.886;17.078;2022-12-07T04:01:29;2.30;99.90
21403;DHT22;10862;51.886;17.078;2022-12-07T04:03:54;2.20;99.90
21403;DHT22;10862;51.886;17.078;2022-12-07T04:06:20;2.30;99.90
21403;DHT22;10862;51.886;17.078;2022-12-07T04:08:45;2.30;99.90
21403;DHT22;10862;51.886;17.078;2022-12-07T04:11:11;2.20;99.90
21403;DHT22;10862;51.886;17.078;2022-12-07T04:13:37;2.30;99.90
21403;DHT22;10862;51.886;17.078;2022-12-07T04:16:22;2.20;99.90
21403;DHT22;10862;51.886;17.078;2022-12-07T04:18:48;2.30;99.90
21403;DHT22;10862;51.886;17.078;2022-12-07T04:21:13;2.30;99.90
21403;DHT22;10862;51.886;17.078;2022-12-07T04:23:39;2.30;99.90
21403;DHT22;10862;51.886;17.078;2022-12-07T04:26:05;2.30;99.90
21403;DHT22;10862;51.886;17.078;2022-12-07T04:28:30;2.30;99.90
21403;DHT22;10862;51.886;17.078;2022-12-07T04:30:56;2.40;99.90
21403;DHT22;10862;51.886;17.078;2022-12-07T04:33:22;2.40;99.90
21403;DHT22;10862;51.886;17.078;2022-12-07T04:35:47;2.30;99.90
21403;DHT22;10862;51.886;17.078;2022-12-07T04:38:13;2.30;99.90
21403;DHT22;10862;51.886;17.078;2022-12-07T04:40:38;2.30;99.90
21403;DHT22;10862;51.886;17.078;2022-12-07T04:43:04;2.30;99.90
21403;DHT22;10862;51.886;17.078;2022-12-07T04:45:30;2.40;99.90
21403;DHT22;10862;51.886;17.078;2022-12-07T04:47:56;2.30;99.90
21403;DHT22;10862;51.886;17.078;2022-12-07T04:50:21;2.40;99.90
21403;DHT22;10862;51.886;17.078;2022-12-07T04:52:47;2.40;99.90
21403;DHT22;10862;51.886;17.078;2022-12-07T04:55:12;2.40;99.90
21403;DHT22;10862;51.886;17.078;2022-12-07T04:57:38;2.40;99.90
21403;DHT22;10862;51.886;17.078;2022-12-07T05:00:04;2.40;99.90
21403;DHT22;10862;51.886;17.078;2022-12-07T05:02:30;2.40;99.90
21403;DHT22;10862;51.886;17.078;2022-12-07T05:04:56;2.40;99.90
21403;DHT22;10862;51.886;17.078;2022-12-07T05:07:21;2.30;99.90
21403;DHT22;10862;51.886;17.078;2022-12-07T05:09:47;2.40;99.90
21403;DHT22;10862;51.886;17.078;2022-12-07T05:12:13;2.50;99.90
21403;DHT22;10862;51.886;17.078;2022-12-07T05:14:38;2.40;99.90
21403;DHT22;10862;51.886;17.078;2022-12-07T05:17:04;2.40;99.90
21403;DHT22;10862;51.886;17.078;2022-12-07T05:19:30;2.40;99.90
21403;DHT22;10862;51.886;17.078;2022-12-07T05:21:55;2.40;99.90
21403;DHT22;10862;51.886;17.078;2022-12-07T05:24:21;2.30;99.90
21403;DHT22;10862;51.886;17.078;2022-12-07T05:26:47;2.30;99.90
21403;DHT22;10862;51.886;17.078;2022-12-07T05:29:14;2.30;99.90
21403;DHT22;10862;51.886;17.078;2022-12-07T05:31:39;2.40;99.90
21403;DHT22;10862;51.886;17.078;2022-12-07T05:34:05;2.30;99.90
21403;DHT22;10862;51.886;17.078;2022-12-07T05:36:31;2.30;99.90
21403;DHT22;10862;51.886;17.078;2022-12-07T05:38:57;2.20;99.90
21403;DHT22;10862;51.886;17.078;2022-12-07T05:41:23;2.20;99.90
21403;DHT22;10862;51.886;17.078;2022-12-07T05:44:07;2.20;99.90
21403;DHT22;10862;51.886;17.078;2022-12-07T05:46:33;2.10;99.90
21403;DHT22;10862;51.886;17.078;2022-12-07T05:48:59;2.20;99.90
21403;DHT22;10862;51.886;17.078;2022-12-07T05:51:24;2.20;99.90
21403;DHT22;10862;51.886;17.078;2022-12-07T05:53:50;2.20;99.90
21403;DHT22;10862;51.886;17.078;2022-12-07T05:56:16;2.20;99.90
21403;DHT22;10862;51.886;17.078;2022-12-07T05:58:41;2.20;99.90
21403;DHT22;10862;51.886;17.078;2022-12-07T06:01:26;2.20;99.90
21403;DHT22;10862;51.886;17.078;2022-12-07T06:03:52;2.20;99.90
21403;DHT22;10862;51.886;17.078;2022-12-07T06:06:17;2.10;99.90
21403;DHT22;10862;51.886;17.078;2022-12-07T06:08:43;2.10;99.90
21403;DHT22;10862;51.886;17.078;2022-12-07T06:11:08;2.10;99.90
21403;DHT22;10862;51.886;17.078;2022-12-07T06:13:53;2.20;99.90
21403;DHT22;10862;51.886;17.078;2022-12-07T06:16:19;2.20;99.90
21403;DHT22;10862;51.886;17.078;2022-12-07T06:18:44;2.20;99.90
21403;DHT22;10862;51.886;17.078;2022-12-07T06:21:10;2.20;99.90
21403;DHT22;10862;51.886;17.078;2022-12-07T06:23:35;2.20;99.90
21403;DHT22;10862;51.886;17.078;2022-12-07T06:26:01;2.20;99.90
21403;DHT22;10862;51.886;17.078;2022-12-07T06:28:27;2.20;99.90
21403;DHT22;10862;51.886;17.078;2022-12-07T06:30:59;2.20;99.90
21403;DHT22;10862;51.886;17.078;2022-12-07T06:33:25;2.30;99.90
21403;DHT22;10862;51.886;17.078;2022-12-07T06:35:51;2.30;99.90
21403;DHT22;10862;51.886;17.078;2022-12-07T06:38:16;2.30;99.90
21403;DHT22;10862;51.886;17.078;2022-12-07T06:40:42;2.40;99.90
21403;DHT22;10862;51.886;17.078;2022-12-07T06:43:08;2.40;99.90
21403;DHT22;10862;51.886;17.078;2022-12-07T06:45:33;2.30;99.90
21403;DHT22;10862;51.886;17.078;2022-12-07T06:47:59;2.20;99.90
21403;DHT22;10862;51.886;17.078;2022-12-07T06:50:25;2.20;99.90
21403;DHT22;10862;51.886;17.078;2022-12-07T06:52:51;2.30;99.90
21403;DHT22;10862;51.886;17.078;2022-12-07T06:55:17;2.20;99.90
21403;DHT22;10862;51.886;17.078;2022-12-07T06:57:43;2.30;99.90
21403;DHT22;10862;51.886;17.078;2022-12-07T07:00:09;2.20;99.90
21403;DHT22;10862;51.886;17.078;2022-12-07T07:02:35;2.20;99.90
21403;DHT22;10862;51.886;17.078;2022-12-07T07:05:01;2.10;99.90
21403;DHT22;10862;51.886;17.078;2022-12-07T07:07:27;2.20;99.90
21403;DHT22;10862;51.886;17.078;2022-12-07T07:09:53;2.20;99.90
21403;DHT22;10862;51.886;17.078;2022-12-07T07:12:18;2.10;99.90
21403;DHT22;10862;51.886;17.078;2022-12-07T07:14:44;2.10;99.90
21403;DHT22;10862;51.886;17.078;2022-12-07T07:17:10;2.20;99.90
21403;DHT22;10862;51.886;17.078;2022-12-07T07:19:35;2.10;99.90
21403;DHT22;10862;51.886;17.078;2022-12-07T07:22:02;2.00;99.90
21403;DHT22;10862;51.886;17.078;2022-12-07T07:24:28;2.10;99.90
21403;DHT22;10862;51.886;17.078;2022-12-07T07:26:54;2.00;99.90
21403;DHT22;10862;51.886;17.078;2022-12-07T07:29:19;1.90;99.90
21403;DHT22;10862;51.886;17.078;2022-12-07T07:31:45;2.00;99.90
21403;DHT22;10862;51.886;17.078;2022-12-07T07:34:11;1.90;99.90
21403;DHT22;10862;51.886;17.078;2022-12-07T07:36:36;1.90;99.90
21403;DHT22;10862;51.886;17.078;2022-12-07T07:39:03;1.90;99.90
21403;DHT22;10862;51.886;17.078;2022-12-07T07:41:28;2.00;99.90
21403;DHT22;10862;51.886;17.078;2022-12-07T07:43:54;1.90;99.90
21403;DHT22;10862;51.886;17.078;2022-12-07T07:46:20;2.00;99.90
21403;DHT22;10862;51.886;17.078;2022-12-07T07:48:45;1.90;99.90
21403;DHT22;10862;51.886;17.078;2022-12-07T07:51:11;1.80;99.90
21403;DHT22;10862;51.886;17.078;2022-12-07T07:53:36;1.80;99.90
21403;DHT22;10862;51.886;17.078;2022-12-07T07:56:02;1.90;99.90
21403;DHT22;10862;51.886;17.078;2022-12-07T07:58:28;1.80;99.90
21403;DHT22;10862;51.886;17.078;2022-12-07T08:00:54;1.70;99.90
21403;DHT22;10862;51.886;17.078;2022-12-07T08:03:20;1.70;99.90
21403;DHT22;10862;51.886;17.078;2022-12-07T08:05:45;1.70;99.90
21403;DHT22;10862;51.886;17.078;2022-12-07T08:08:11;1.70;99.90
21403;DHT22;10862;51.886;17.078;2022-12-07T08:10:37;1.70;99.90
21403;DHT22;10862;51.886;17.078;2022-12-07T08:13:03;1.80;99.90
21403;DHT22;10862;51.886;17.078;2022-12-07T08:15:40;1.80;99.90
21403;DHT22;10862;51.886;17.078;2022-12-07T08:18:06;1.80;99.90
21403;DHT22;10862;51.886;17.078;2022-12-07T08:20:32;1.80;99.90
21403;DHT22;10862;51.886;17.078;2022-12-07T08:22:58;1.80;99.90
21403;DHT22;10862;51.886;17.078;2022-12-07T08:25:24;1.80;99.90
21403;DHT22;10862;51.886;17.078;2022-12-07T08:27:51;1.70;99.90
21403;DHT22;10862;51.886;17.078;2022-12-07T08:30:17;1.70;99.90
21403;DHT22;10862;51.886;17.078;2022-12-07T08:32:45;1.80;99.90
21403;DHT22;10862;51.886;17.078;2022-12-07T08:35:10;1.70;99.90
21403;DHT22;10862;51.886;17.078;2022-12-07T08:37:36;1.80;99.90
21403;DHT22;10862;51.886;17.078;2022-12-07T08:40:03;1.80;99.90
21403;DHT22;10862;51.886;17.078;2022-12-07T08:42:30;1.80;99.90
21403;DHT22;10862;51.886;17.078;2022-12-07T08:45:04;1.90;99.90
21403;DHT22;10862;51.886;17.078;2022-12-07T08:47:30;1.90;99.90
21403;DHT22;10862;51.886;17.078;2022-12-07T08:49:56;2.10;99.90
21403;DHT22;10862;51.886;17.078;2022-12-07T08:52:22;2.00;99.90
21403;DHT22;10862;51.886;17.078;2022-12-07T08:54:48;1.90;99.90
21403;DHT22;10862;51.886;17.078;2022-12-07T08:57:14;2.00;99.90
21403;DHT22;10862;51.886;17.078;2022-12-07T08:59:40;2.00;99.90
21403;DHT22;10862;51.886;17.078;2022-12-07T09:02:06;2.00;99.90
21403;DHT22;10862;51.886;17.078;2022-12-07T09:04:32;2.10;99.90
21403;DHT22;10862;51.886;17.078;2022-12-07T09:06:57;2.10;99.90
21403;DHT22;10862;51.886;17.078;2022-12-07T09:09:23;2.20;99.90
21403;DHT22;10862;51.886;17.078;2022-12-07T09:11:49;2.20;99.90
21403;DHT22;10862;51.886;17.078;2022-12-07T09:14:15;2.20;99.90
21403;DHT22;10862;51.886;17.078;2022-12-07T09:16:40;2.30;99.90
21403;DHT22;10862;51.886;17.078;2022-12-07T09:19:07;2.30;99.90
21403;DHT22;10862;51.886;17.078;2022-12-07T09:21:33;2.50;99.90
21403;DHT22;10862;51.886;17.078;2022-12-07T09:23:58;2.40;99.90
21403;DHT22;10862;51.886;17.078;2022-12-07T09:26:24;2.50;99.90
21403;DHT22;10862;51.886;17.078;2022-12-07T09:28:50;2.40;99.90
21403;DHT22;10862;51.886;17.078;2022-12-07T09:31:15;2.50;99.90
21403;DHT22;10862;51.886;17.078;2022-12-07T09:33:41;2.50;99.90
21403;DHT22;10862;51.886;17.078;2022-12-07T09:36:07;2.60;99.90
21403;DHT22;10862;51.886;17.078;2022-12-07T09:38:32;2.50;99.90
21403;DHT22;10862;51.886;17.078;2022-12-07T09:41:06;2.50;99.90
21403;DHT22;10862;51.886;17.078;2022-12-07T09:43:34;2.60;99.90
21403;DHT22;10862;51.886;17.078;2022-12-07T09:46:01;2.60;99.90
21403;DHT22;10862;51.886;17.078;2022-12-07T09:48:36;2.60;99.90
21403;DHT22;10862;51.886;17.078;2022-12-07T09:51:22;2.60;99.90
21403;DHT22;10862;51.886;17.078;2022-12-07T09:53:49;2.70;99.90
21403;DHT22;10862;51.886;17.078;2022-12-07T09:56:16;2.70;99.90
21403;DHT22;10862;51.886;17.078;2022-12-07T09:58:43;2.70;99.90
21403;DHT22;10862;51.886;17.078;2022-12-07T10:01:16;2.60;99.90
21403;DHT22;10862;51.886;17.078;2022-12-07T10:04:32;2.60;99.90
21403;DHT22;10862;51.886;17.078;2022-12-07T10:06:33;2.50;99.90
21403;DHT22;10862;51.886;17.078;2022-12-07T10:08:58;2.50;99.90
21403;DHT22;10862;51.886;17.078;2022-12-07T10:11:24;2.60;99.90
21403;DHT22;10862;51.886;17.078;2022-12-07T10:13:52;2.60;99.90
21403;DHT22;10862;51.886;17.078;2022-12-07T10:18:52;2.50;99.90
21403;DHT22;10862;51.886;17.078;2022-12-07T10:21:28;2.60;99.90
21403;DHT22;10862;51.886;17.078;2022-12-07T10:31:41;2.50;99.90
21403;DHT22;10862;51.886;17.078;2022-12-07T10:34:29;2.60;99.90
21403;DHT22;10862;51.886;17.078;2022-12-07T10:37:14;2.60;99.90
21403;DHT22;10862;51.886;17.078;2022-12-07T10:39:51;2.60;99.90
21403;DHT22;10862;51.886;17.078;2022-12-07T10:42:18;2.60;99.90
21403;DHT22;10862;51.886;17.078;2022-12-07T10:44:44;2.70;99.90
21403;DHT22;10862;51.886;17.078;2022-12-07T11:00:29;2.60;99.90
21403;DHT22;10862;51.886;17.078;2022-12-07T11:03:09;2.60;99.90
21403;DHT22;10862;51.886;17.078;2022-12-07T11:11:41;2.70;99.90
21403;DHT22;10862;51.886;17.078;2022-12-07T11:14:32;2.80;99.90
21403;DHT22;10862;51.886;17.078;2022-12-07T11:25:22;2.90;99.90
21403;DHT22;10862;51.886;17.078;2022-12-07T11:38:40;3.00;99.90
21403;DHT22;10862;51.886;17.078;2022-12-07T11:41:08;3.00;99.90
21403;DHT22;10862;51.886;17.078;2022-12-07T11:44:05;3.10;99.90
21403;DHT22;10862;51.886;17.078;2022-12-07T11:46:49;3.10;99.90
21403;DHT22;10862;51.886;17.078;2022-12-07T11:49:40;3.10;99.90
21403;DHT22;10862;51.886;17.078;2022-12-07T11:54:57;3.20;99.90
21403;DHT22;10862;51.886;17.078;2022-12-07T11:57:39;3.10;99.90
21403;DHT22;10862;51.886;17.078;2022-12-07T12:00:15;3.20;99.90
21403;DHT22;10862;51.886;17.078;2022-12-07T12:05:21;3.20;99.90
21403;DHT22;10862;51.886;17.078;2022-12-07T12:07:57;3.20;99.90
21403;DHT22;10862;51.886;17.078;2022-12-07T12:19:15;3.20;99.90
21403;DHT22;10862;51.886;17.078;2022-12-07T12:21:43;3.20;99.90
21403;DHT22;10862;51.886;17.078;2022-12-07T12:24:16;3.20;99.90
21403;DHT22;10862;51.886;17.078;2022-12-07T12:27:03;3.10;99.90
21403;DHT22;10862;51.886;17.078;2022-12-07T12:29:34;3.20;99.90
21403;DHT22;10862;51.886;17.078;2022-12-07T12:32:17;3.10;99.90
21403;DHT22;10862;51.886;17.078;2022-12-07T12:35:00;3.10;99.90
21403;DHT22;10862;51.886;17.078;2022-12-07T12:42:48;3.30;99.90
21403;DHT22;10862;51.886;17.078;2022-12-07T12:45:19;3.30;99.90
21403;DHT22;10862;51.886;17.078;2022-12-07T12:50:26;3.30;99.90
21403;DHT22;10862;51.886;17.078;2022-12-07T12:53:00;3.30;99.90
21403;DHT22;10862;51.886;17.078;2022-12-07T13:00:44;3.10;99.90
21403;DHT22;10862;51.886;17.078;2022-12-07T13:03:27;3.10;99.90
21403;DHT22;10862;51.886;17.078;2022-12-07T13:06:31;3.10;99.90
21403;DHT22;10862;51.886;17.078;2022-12-07T13:08:59;3.10;99.90
21403;DHT22;10862;51.886;17.078;2022-12-07T13:11:33;3.20;99.90
21403;DHT22;10862;51.886;17.078;2022-12-07T13:17:03;3.20;99.90
21403;DHT22;10862;51.886;17.078;2022-12-07T13:30:53;3.00;99.90
21403;DHT22;10862;51.886;17.078;2022-12-07T13:33:24;3.00;99.90
21403;DHT22;10862;51.886;17.078;2022-12-07T13:35:54;3.10;99.90
21403;DHT22;10862;51.886;17.078;2022-12-07T13:38:33;3.10;99.90
21403;DHT22;10862;51.886;17.078;2022-12-07T13:41:13;3.20;99.90
21403;DHT22;10862;51.886;17.078;2022-12-07T13:43:52;3.30;99.90
21403;DHT22;10862;51.886;17.078;2022-12-07T13:46:24;3.30;99.90
21403;DHT22;10862;51.886;17.078;2022-12-07T13:48:51;3.20;99.90
21403;DHT22;10862;51.886;17.078;2022-12-07T13:51:23;3.10;99.90
21403;DHT22;10862;51.886;17.078;2022-12-07T13:53:54;3.00;99.90
21403;DHT22;10862;51.886;17.078;2022-12-07T13:56:28;2.90;99.90
21403;DHT22;10862;51.886;17.078;2022-12-07T13:58:57;2.80;99.90
21403;DHT22;10862;51.886;17.078;2022-12-07T14:01:24;2.80;99.90
21403;DHT22;10862;51.886;17.078;2022-12-07T14:03:49;2.80;99.90
21403;DHT22;10862;51.886;17.078;2022-12-07T14:06:25;2.60;99.90
21403;DHT22;10862;51.886;17.078;2022-12-07T14:09:16;2.60;99.90
21403;DHT22;10862;51.886;17.078;2022-12-07T14:11:43;2.50;99.90
21403;DHT22;10862;51.886;17.078;2022-12-07T14:14:33;2.50;99.90
21403;DHT22;10862;51.886;17.078;2022-12-07T14:17:24;2.50;99.90
21403;DHT22;10862;51.886;17.078;2022-12-07T14:19:56;2.40;99.90
21403;DHT22;10862;51.886;17.078;2022-12-07T14:22:38;2.40;99.90
21403;DHT22;10862;51.886;17.078;2022-12-07T14:27:39;2.50;99.90
21403;DHT22;10862;51.886;17.078;2022-12-07T14:30:06;2.50;99.90
21403;DHT22;10862;51.886;17.078;2022-12-07T14:32:34;2.50;99.90
21403;DHT22;10862;51.886;17.078;2022-12-07T14:35:11;2.60;99.90
21403;DHT22;10862;51.886;17.078;2022-12-07T14:37:39;2.50;99.90
21403;DHT22;10862;51.886;17.078;2022-12-07T14:40:05;2.50;99.90
21403;DHT22;10862;51.886;17.078;2022-12-07T14:42:33;2.50;99.90
21403;DHT22;10862;51.886;17.078;2022-12-07T14:44:59;2.50;99.90
21403;DHT22;10862;51.886;17.078;2022-12-07T14:47:26;2.40;99.90
21403;DHT22;10862;51.886;17.078;2022-12-07T14:49:52;2.50;99.90
21403;DHT22;10862;51.886;17.078;2022-12-07T14:52:25;2.40;99.90
21403;DHT22;10862;51.886;17.078;2022-12-07T14:54:52;2.40;99.90
21403;DHT22;10862;51.886;17.078;2022-12-07T14:57:18;2.40;99.90
21403;DHT22;10862;51.886;17.078;2022-12-07T14:59:44;2.40;99.90
21403;DHT22;10862;51.886;17.078;2022-12-07T15:02:12;2.40;99.90
21403;DHT22;10862;51.886;17.078;2022-12-07T15:04:38;2.30;99.90
21403;DHT22;10862;51.886;17.078;2022-12-07T15:07:05;2.30;99.90
21403;DHT22;10862;51.886;17.078;2022-12-07T15:09:31;2.30;99.90
21403;DHT22;10862;51.886;17.078;2022-12-07T15:11:57;2.50;99.90
21403;DHT22;10862;51.886;17.078;2022-12-07T15:14:22;2.30;99.90
21403;DHT22;10862;51.886;17.078;2022-12-07T15:16:48;2.30;99.90
21403;DHT22;10862;51.886;17.078;2022-12-07T15:19:19;2.30;99.90
21403;DHT22;10862;51.886;17.078;2022-12-07T15:21:48;2.20;99.90
21403;DHT22;10862;51.886;17.078;2022-12-07T15:24:14;2.10;99.90
21403;DHT22;10862;51.886;17.078;2022-12-07T15:26:40;2.10;99.90
21403;DHT22;10862;51.886;17.078;2022-12-07T15:29:07;2.10;99.90
21403;DHT22;10862;51.886;17.078;2022-12-07T15:31:33;2.00;99.90
21403;DHT22;10862;51.886;17.078;2022-12-07T15:33:59;2.00;99.90
21403;DHT22;10862;51.886;17.078;2022-12-07T15:36:27;2.10;99.90
21403;DHT22;10862;51.886;17.078;2022-12-07T15:38:53;2.20;99.90
21403;DHT22;10862;51.886;17.078;2022-12-07T15:41:19;2.10;99.90
21403;DHT22;10862;51.886;17.078;2022-12-07T15:43:45;2.10;99.90
21403;DHT22;10862;51.886;17.078;2022-12-07T15:46:34;2.20;99.90
21403;DHT22;10862;51.886;17.078;2022-12-07T15:49:01;2.10;99.90
21403;DHT22;10862;51.886;17.078;2022-12-07T15:51:27;2.00;99.90
21403;DHT22;10862;51.886;17.078;2022-12-07T15:53:53;1.90;99.90
21403;DHT22;10862;51.886;17.078;2022-12-07T15:56:19;1.80;99.90
21403;DHT22;10862;51.886;17.078;2022-12-07T15:58:44;1.80;99.90
21403;DHT22;10862;51.886;17.078;2022-12-07T16:01:16;1.80;99.90
21403;DHT22;10862;51.886;17.078;2022-12-07T16:03:42;1.70;99.90
21403;DHT22;10862;51.886;17.078;2022-12-07T16:06:09;1.60;99.90
21403;DHT22;10862;51.886;17.078;2022-12-07T16:08:35;1.70;99.90
21403;DHT22;10862;51.886;17.078;2022-12-07T16:11:05;1.60;99.90
21403;DHT22;10862;51.886;17.078;2022-12-07T16:13:31;1.60;99.90
21403;DHT22;10862;51.886;17.078;2022-12-07T16:15:56;1.60;99.90
21403;DHT22;10862;51.886;17.078;2022-12-07T16:18:22;1.60;99.90
21403;DHT22;10862;51.886;17.078;2022-12-07T16:20:48;1.50;99.90
21403;DHT22;10862;51.886;17.078;2022-12-07T16:23:15;1.60;99.90
21403;DHT22;10862;51.886;17.078;2022-12-07T16:25:41;1.50;99.90
21403;DHT22;10862;51.886;17.078;2022-12-07T16:28:07;1.50;99.90
21403;DHT22;10862;51.886;17.078;2022-12-07T16:30:33;1.50;99.90
21403;DHT22;10862;51.886;17.078;2022-12-07T16:32:59;1.50;99.90
21403;DHT22;10862;51.886;17.078;2022-12-07T16:35:24;1.50;99.90
21403;DHT22;10862;51.886;17.078;2022-12-07T16:37:50;1.50;99.90
21403;DHT22;10862;51.886;17.078;2022-12-07T16:40:15;1.50;99.90
21403;DHT22;10862;51.886;17.078;2022-12-07T16:42:41;1.40;99.90
21403;DHT22;10862;51.886;17.078;2022-12-07T16:45:07;1.40;99.90
21403;DHT22;10862;51.886;17.078;2022-12-07T16:47:33;1.40;99.90
21403;DHT22;10862;51.886;17.078;2022-12-07T16:50:02;1.40;99.90
21403;DHT22;10862;51.886;17.078;2022-12-07T16:52:27;1.40;99.90
21403;DHT22;10862;51.886;17.078;2022-12-07T16:54:53;1.50;99.90
21403;DHT22;10862;51.886;17.078;2022-12-07T16:57:19;1.40;99.90
21403;DHT22;10862;51.886;17.078;2022-12-07T16:59:45;1.40;99.90
21403;DHT22;10862;51.886;17.078;2022-12-07T17:02:11;1.40;99.90
21403;DHT22;10862;51.886;17.078;2022-12-07T17:04:37;1.30;99.90
21403;DHT22;10862;51.886;17.078;2022-12-07T17:07:07;1.30;99.90
21403;DHT22;10862;51.886;17.078;2022-12-07T17:09:33;1.20;99.90
21403;DHT22;10862;51.886;17.078;2022-12-07T17:11:59;1.30;99.90
21403;DHT22;10862;51.886;17.078;2022-12-07T17:14:25;1.30;99.90
21403;DHT22;10862;51.886;17.078;2022-12-07T17:17:09;1.20;99.90
21403;DHT22;10862;51.886;17.078;2022-12-07T17:19:35;1.30;99.90
21403;DHT22;10862;51.886;17.078;2022-12-07T17:22:00;1.30;99.90
21403;DHT22;10862;51.886;17.078;2022-12-07T17:24:26;1.40;99.90
21403;DHT22;10862;51.886;17.078;2022-12-07T17:26:52;1.30;99.90
21403;DHT22;10862;51.886;17.078;2022-12-07T17:29:18;1.30;99.90
21403;DHT22;10862;51.886;17.078;2022-12-07T17:31:45;1.20;99.90
21403;DHT22;10862;51.886;17.078;2022-12-07T17:34:12;1.30;99.90
21403;DHT22;10862;51.886;17.078;2022-12-07T17:36:38;1.20;99.90
21403;DHT22;10862;51.886;17.078;2022-12-07T17:39:11;1.40;99.90
21403;DHT22;10862;51.886;17.078;2022-12-07T17:41:38;1.30;99.90
21403;DHT22;10862;51.886;17.078;2022-12-07T17:44:23;1.30;99.90
21403;DHT22;10862;51.886;17.078;2022-12-07T17:46:51;1.30;99.90
21403;DHT22;10862;51.886;17.078;2022-12-07T17:49:22;1.30;99.90
21403;DHT22;10862;51.886;17.078;2022-12-07T17:51:49;1.40;99.90
21403;DHT22;10862;51.886;17.078;2022-12-07T17:54:33;1.40;99.90